logo tempoitalia

Diretta Meteo Tulsa Jones Jr, Stati Uniti (USA)lunedì 31 agosto ore 00:53

Mappa
Sereno 24 °C Sereno 24 Ore: T.min 23 T.max 39
Ponente Nord Km/h 0 Punto di rugiada: 20 °C Umidità: 78% Visibilità: 10 Km
Il sole sorge alle: 06:55 Il sole tramonta alle: 19:53
31 Agosto 2026 00:53 tempo osservato: Sereno Sereno 24 78 1013 vento: Nord N 0
30 Agosto 2026 23:53 tempo osservato: Sereno Sereno 25 69 1013 vento: Nord N 0
30 Agosto 2026 22:53 tempo osservato: Sereno Sereno 26 65 1013 vento: Nord N 0
30 Agosto 2026 21:53 tempo osservato: Sereno Sereno 29 51 1012 vento: Nord S 7.4
30 Agosto 2026 20:53 tempo osservato: Sereno Sereno 34 36 1011 vento: Nord S/SE 7.4
30 Agosto 2026 19:53 tempo osservato: Sereno Sereno 36 32 1011 vento: Nord S/SE 11.1
30 Agosto 2026 18:53 tempo osservato: Sereno Sereno 37 30 1011 vento: Nord S 13
30 Agosto 2026 17:53 tempo osservato: Sereno Sereno 38 29 1011 vento: Nord S 18.5
30 Agosto 2026 16:53 tempo osservato: Sereno Sereno 38 29 1011 vento: Nord S 14.8
30 Agosto 2026 15:53 tempo osservato: Sereno Sereno 39 29 1012 vento: Nord S 18.5
30 Agosto 2026 14:53 tempo osservato: Sereno Sereno 38 33 1013 vento: Nord S/SO 16.7
30 Agosto 2026 13:53 tempo osservato: Sereno Sereno 37 32 1014 vento: Nord S 22.2
30 Agosto 2026 12:53 tempo osservato: Sereno Sereno 36 39 1014 vento: Nord S/SO 20.3
30 Agosto 2026 11:53 tempo osservato: Sereno Sereno 35 44 1015 vento: Nord S 16.7
30 Agosto 2026 10:53 tempo osservato: Sereno Sereno 32 46 1015 vento: Nord S 16.7
30 Agosto 2026 09:53 tempo osservato: Sereno Sereno 31 48 1016 vento: Nord S 16.7
30 Agosto 2026 08:53 tempo osservato: Sereno Sereno 27 57 1016 vento: Nord S 13
30 Agosto 2026 07:53 tempo osservato: Sereno Sereno 26 57 1016 vento: Nord S 11.1
30 Agosto 2026 06:53 tempo osservato: Sereno Sereno 24 64 1015 vento: Nord S 9.3
30 Agosto 2026 05:53 tempo osservato: Sereno Sereno 23 73 1015 vento: Nord N 5.5
30 Agosto 2026 04:53 tempo osservato: Sereno Sereno 26 57 1015 vento: Nord S 7.4
30 Agosto 2026 03:53 tempo osservato: Sereno Sereno 26 57 1014 vento: Nord N 5.5
30 Agosto 2026 02:53 tempo osservato: Sereno Sereno 27 54 1014 vento: Nord S 9.3
30 Agosto 2026 01:53 tempo osservato: Sereno Sereno 28 51 1014 vento: Nord S 11.1